Home PIREPS Pireps

Flight BEL12068TR

  • Submitted By: AndrĂ© Vincent
  • Departure Airport: RAF Wittering (EGXT)
  • Arrival Airport: Budapest / Ferihegy (LHBP)
  • Aircraft: YOUR CHOICE (YC)
  • Flight Time: 02.03
  • Date Submitted: 09/10/2017
  • Status: Accepted
Flight Details
Gross Revenue:
(25 load / € 0.00 per unit
€ 0.00
Fuel Cost:
(10610 fuel used @ 5.1 / unit)
€ 54,111.00

Additional Log Information:

View Log

Aircraft Used in flight is Boeing 737-800 Paint6
10:08 Brakes are On
10:10 Brakes are Released
10:11 You Took off @ 201 Knots and Flaps at Position 2
Departure Weather
EGXT 090750Z 22005KT 9999 SCT028 OVC032 12/11 Q1018 BLUrn
10:11 You are Airborne and your Navigation Lights are off
10:11 Landing Gear Up @ 202 Knots and 310 Feet
11:50 You exceeded maximum bank angle
12:03 Landing Gear Down @ 134 Knots and 2400 Feet
12:06 You Landed @ 108 Knots and with -300 Vertical Speed
Arrival Weather
LHBP 090930Z 27017KT CAVOK 13/02 Q1018 NOSIGrn
12:11 Brakes are On
12:12 Brussels Bel-Track1.0.1.2

Route Map

Corporate About Us Our Team Vacancies Information Fleet Route Network Rules and Regulations Operations Flight Schedules Event Center Tours Partners IVAO Vatsim Acars dev FSCB

fb Users Online Belgium Martin Witters, Belgium Bennie Peeters, Belgium Jos Viville,
3 Pilot(s) and 137 Guest(s) Online
CMS by phpVMS - Design by Crazycreatives.com - Copyright © 2018 - Brussels Airlines Virtual